Pagrindinis puslapis
METAR-TAF:

METAR-TAF

Oro uostai :

Makasas, Ekvadoras

platuma: 02-17-57-S, ilguma: 078-07-15-W, Aukštis: 1052 m

Dabartinis oras

Ataskaita buvo paskelbta 1 valandą ir 1 minutes, ne 15:00 UTC
Vėjas 2 kt iš Rytų/Pietryčių
Temperatūra 24°C
Drėgmė 74%
Slėgis 1022 hPa
Matomumas 10 km arba daugiau
Mažai debesys ne aukštis 2600 ft
Išsisklaidę debesys ne aukštis 11000 ft

METAR: SEMC 221500Z 12002KT 9999 FEW026 SCT110 24/19 Q1022 RMK A3018

Laikas: 11:01 (16:01 UTC)


TAF: trūkstamas

Orai ataskaitas ir orų prognozės (METAR, TAF).

turimą stotys yra geltonos ir raudonos taškus žemėlapyje.

Perkelti pele per norėdami pamatyti stoties vardą.

Tada spustelėkite, norėdami matyti oro stebėjimo ir prognozės.

Norėdami pakeisti žemėlapį: spustelėkite ant žalios mygtukų su juodo kryžiaus žemyn,; žalią mygtuką su brūkšneliu, jei norite nutolinti; arba žalių rodyklių gretimoms žemėlapius.


METAR-TAF: